Elkton, Tennessee
Current Conditions -  °F | °C
As of 4:55 AM on Friday 28 Nov 2014 (Local Time) from KFYM Reporting Station
Clear Clear  
Wind Chill:   Ceiling: Unl
Heat Index: 21°   Visibility: 10mi
Dew Point: 18°   Wind: 12mph
Humidity: 86%   Direction: 360°N
Pressure: 30.4"   Gusts: 30mph
Location:  35.05°N, 86.89°W
Report Text: KFYM 281055Z AUTO 36010G26KT 10SM CLR M06/M08 A3040 RMK
Loading
Personal Weather Stations






























Interactive Weather Map New forecast layout! Learn more

10-Day Weather Forecast

Advertisements
Track Severe Weather on mobile